createdAt,value
2022-10-08T00:00:30.598Z,99.99
2022-10-08T00:01:30.621Z,99.99
2022-10-08T00:02:30.573Z,99.99
2022-10-08T00:03:30.562Z,99.99
2022-10-08T00:04:30.642Z,99.99
2022-10-08T00:05:30.534Z,99.99
2022-10-08T00:06:30.526Z,99.99
2022-10-08T00:07:30.519Z,99.99
2022-10-08T00:08:30.498Z,99.99
2022-10-08T00:09:30.485Z,99.99
2022-10-08T00:10:30.470Z,99.99
2022-10-08T00:11:30.494Z,99.99
2022-10-08T00:12:30.444Z,99.99
2022-10-08T00:13:30.431Z,99.99
2022-10-08T00:14:30.418Z,99.99
2022-10-08T00:15:30.405Z,99.99
2022-10-08T00:16:30.518Z,99.99
2022-10-08T00:17:30.379Z,99.99
2022-10-08T00:18:30.373Z,99.99
2022-10-08T00:19:30.354Z,99.99
2022-10-08T00:20:30.341Z,99.99
2022-10-08T00:21:30.328Z,99.99
2022-10-08T00:22:30.314Z,99.99
2022-10-08T00:23:30.303Z,99.99
2022-10-08T00:24:30.292Z,99.99
2022-10-08T00:25:30.278Z,99.99
2022-10-08T00:26:30.263Z,99.99
2022-10-08T00:27:30.275Z,99.99
2022-10-08T00:28:30.339Z,99.99
2022-10-08T00:29:30.226Z,99.99
2022-10-08T00:30:30.409Z,99.99
2022-10-08T00:31:30.291Z,99.99
2022-10-08T00:32:30.187Z,99.99
2022-10-08T00:33:30.174Z,99.99
2022-10-08T00:34:30.170Z,99.99
2022-10-08T00:35:30.147Z,99.99
2022-10-08T00:36:30.136Z,99.99
2022-10-08T00:37:30.122Z,99.99
2022-10-08T00:38:30.112Z,99.99
2022-10-08T00:39:30.102Z,99.99
2022-10-08T00:40:30.083Z,99.99
2022-10-08T00:41:30.074Z,99.99
2022-10-08T00:42:30.061Z,99.99
2022-10-08T00:43:30.069Z,99.99
2022-10-08T00:44:30.049Z,99.99
2022-10-08T00:45:30.067Z,99.99
2022-10-08T00:46:30.007Z,99.99
2022-10-08T00:47:30.004Z,99.99
2022-10-08T00:48:29.984Z,99.99
2022-10-08T00:49:29.970Z,99.99
2022-10-08T00:50:29.953Z,99.99
2022-10-08T00:51:29.943Z,99.99
2022-10-08T00:52:29.932Z,99.99
2022-10-08T00:53:29.919Z,99.99
2022-10-08T00:54:29.904Z,99.99
2022-10-08T00:55:29.887Z,99.99
2022-10-08T00:56:29.877Z,99.99
2022-10-08T00:57:29.864Z,99.99
2022-10-08T00:58:29.850Z,99.99
2022-10-08T00:59:29.863Z,99.99
2022-10-08T01:00:29.939Z,99.99
2022-10-08T01:01:29.812Z,99.99
2022-10-08T01:02:29.890Z,99.99
2022-10-08T01:03:29.788Z,99.99
2022-10-08T01:05:21.927Z,99.99
2022-10-08T01:06:21.923Z,99.99
2022-10-08T01:07:21.902Z,99.99
2022-10-08T01:08:21.891Z,99.99
2022-10-08T01:09:21.875Z,99.99
2022-10-08T01:10:21.863Z,99.99
2022-10-08T01:11:21.853Z,99.99
2022-10-08T01:12:21.834Z,99.99
2022-10-08T01:13:21.824Z,99.99
2022-10-08T01:14:21.813Z,99.99
2022-10-08T01:15:21.821Z,99.99
2022-10-08T01:16:21.865Z,99.99
2022-10-08T01:17:21.775Z,99.99
2022-10-08T01:18:21.761Z,99.99
2022-10-08T01:21:08.911Z,99.99
2022-10-08T01:22:49.278Z,99.99
2022-10-08T01:23:48.968Z,99.99
2022-10-08T01:24:48.960Z,99.99
2022-10-08T01:25:48.944Z,99.99
2022-10-08T01:26:48.932Z,99.99
2022-10-08T01:27:48.917Z,99.99
2022-10-08T01:28:48.905Z,99.99
2022-10-08T01:29:48.893Z,99.99
2022-10-08T01:30:48.904Z,99.99
2022-10-08T01:31:49.002Z,99.99
2022-10-08T01:32:49.201Z,99.99
2022-10-08T01:33:48.843Z,99.99
2022-10-08T01:34:48.827Z,99.99
2022-10-08T01:35:48.814Z,99.99
2022-10-08T01:36:48.802Z,99.99
2022-10-08T01:37:48.789Z,99.99
2022-10-08T01:38:48.783Z,99.99
2022-10-08T01:39:48.761Z,99.99
2022-10-08T01:40:48.750Z,99.99
2022-10-08T01:41:48.737Z,99.99
2022-10-08T01:42:48.974Z,99.99
2022-10-08T01:43:48.711Z,99.99
2022-10-08T01:44:48.695Z,99.99
2022-10-08T01:45:48.772Z,99.99
2022-10-08T01:46:48.697Z,99.99
2022-10-08T01:47:48.657Z,99.99
2022-10-08T01:48:48.650Z,99.99
2022-10-08T01:49:48.632Z,99.99
2022-10-08T01:50:48.619Z,99.99
2022-10-08T01:51:48.619Z,99.99
2022-10-08T01:52:49.115Z,99.99
2022-10-08T01:53:48.580Z,99.99
2022-10-08T01:54:48.567Z,99.99
2022-10-08T01:55:48.555Z,99.99
2022-10-08T01:56:48.541Z,99.99
2022-10-08T01:57:48.532Z,99.99
2022-10-08T01:58:48.516Z,99.99
2022-10-08T01:59:48.500Z,99.99
2022-10-08T02:00:48.569Z,99.99
2022-10-08T02:01:48.539Z,99.99
2022-10-08T02:02:48.744Z,99.99
2022-10-08T02:03:48.451Z,99.99
2022-10-08T02:04:48.435Z,99.99
2022-10-08T02:05:48.423Z,99.99
2022-10-08T02:06:48.410Z,99.99
2022-10-08T02:07:48.397Z,99.99
2022-10-08T02:08:48.383Z,99.99
2022-10-08T02:09:48.380Z,99.99
2022-10-08T02:10:48.358Z,99.99
2022-10-08T02:11:48.347Z,99.99
2022-10-08T02:12:48.773Z,99.99
2022-10-08T02:13:48.321Z,99.99
2022-10-08T02:14:48.314Z,99.99
2022-10-08T02:15:48.294Z,99.99
2022-10-08T02:16:48.364Z,99.99
2022-10-08T02:17:48.268Z,99.99
2022-10-08T02:18:48.280Z,99.99
2022-10-08T02:19:48.243Z,99.99
2022-10-08T02:20:48.232Z,99.99
2022-10-08T02:21:48.222Z,99.99
2022-10-08T02:22:48.555Z,99.99
2022-10-08T02:23:48.190Z,99.99
2022-10-08T02:24:48.179Z,99.99
2022-10-08T02:25:48.163Z,99.99
2022-10-08T02:26:48.155Z,99.99
2022-10-08T02:27:48.136Z,99.99
2022-10-08T02:28:48.126Z,99.99
2022-10-08T02:29:48.109Z,99.99
2022-10-08T02:30:48.098Z,99.99
2022-10-08T02:31:48.185Z,99.99
2022-10-08T02:32:48.261Z,99.99
2022-10-08T02:33:48.060Z,99.99
2022-10-08T02:34:48.074Z,99.99
2022-10-08T02:35:48.037Z,99.99
2022-10-08T02:36:48.018Z,99.99
2022-10-08T02:37:48.014Z,99.99
2022-10-08T02:38:48.000Z,99.99
2022-10-08T02:39:47.984Z,99.99
2022-10-08T02:40:47.968Z,99.99
2022-10-08T02:41:47.960Z,99.99
2022-10-08T02:42:48.356Z,99.99
2022-10-08T02:43:47.937Z,99.99
2022-10-08T02:44:47.921Z,99.99
2022-10-08T02:45:47.952Z,99.99
2022-10-08T02:46:47.892Z,99.99
2022-10-08T02:47:47.879Z,99.99
2022-10-08T02:48:47.867Z,99.99
2022-10-08T02:49:47.853Z,99.99
2022-10-08T02:50:47.864Z,99.99
2022-10-08T02:51:47.832Z,99.99
2022-10-08T02:52:48.260Z,99.99
2022-10-08T02:53:47.798Z,99.99
2022-10-08T02:54:47.790Z,99.99
2022-10-08T02:55:47.778Z,99.99
2022-10-08T02:56:47.763Z,99.99
2022-10-08T02:57:47.748Z,99.99
2022-10-08T02:58:47.736Z,99.99
2022-10-08T02:59:47.727Z,99.99
2022-10-08T03:00:47.720Z,99.99
2022-10-08T03:01:47.697Z,99.99
2022-10-08T03:02:47.981Z,99.99
2022-10-08T03:03:47.675Z,99.99
2022-10-08T03:04:47.663Z,99.99
2022-10-08T03:05:47.647Z,99.99
2022-10-08T03:06:47.661Z,99.99
2022-10-08T03:07:47.624Z,99.99
2022-10-08T03:08:47.612Z,99.99
2022-10-08T03:09:47.600Z,99.99
2022-10-08T03:10:47.584Z,99.99
2022-10-08T03:11:47.568Z,99.99
2022-10-08T03:12:47.891Z,99.99
2022-10-08T03:13:47.544Z,99.99
2022-10-08T03:14:47.527Z,99.99
2022-10-08T03:15:47.520Z,99.99
2022-10-08T03:16:47.583Z,99.99
2022-10-08T03:17:47.491Z,99.99
2022-10-08T03:18:47.476Z,99.99
2022-10-08T03:19:47.658Z,99.99
2022-10-08T03:20:47.450Z,99.99
2022-10-08T03:21:47.441Z,99.99
2022-10-08T03:22:47.827Z,99.99
2022-10-08T03:23:47.414Z,99.99
2022-10-08T03:24:47.399Z,99.99
2022-10-08T03:25:47.385Z,99.99
2022-10-08T03:26:47.373Z,99.99
2022-10-08T03:27:47.360Z,99.99
2022-10-08T03:28:47.428Z,99.99
2022-10-08T03:29:47.531Z,99.99
2022-10-08T03:30:47.659Z,99.99
2022-10-08T03:31:47.311Z,99.99
2022-10-08T03:32:47.608Z,99.99
2022-10-08T03:33:47.286Z,99.99
2022-10-08T03:34:47.270Z,99.99
2022-10-08T03:35:47.261Z,99.99
2022-10-08T03:36:47.245Z,99.99
2022-10-08T03:37:47.234Z,99.99
2022-10-08T03:38:47.440Z,99.99
2022-10-08T03:39:47.210Z,99.99
2022-10-08T03:40:47.193Z,99.99
2022-10-08T03:41:47.181Z,99.99
2022-10-08T03:42:47.653Z,99.99
2022-10-08T03:43:47.158Z,99.99
2022-10-08T03:44:47.141Z,99.99
2022-10-08T03:45:47.160Z,99.99
2022-10-08T03:46:47.116Z,99.99
2022-10-08T03:47:47.104Z,99.99
2022-10-08T03:48:47.087Z,99.99
2022-10-08T03:49:47.081Z,99.99
2022-10-08T03:50:47.065Z,99.99
2022-10-08T03:51:47.049Z,99.99
2022-10-08T03:52:47.287Z,99.99
2022-10-08T03:53:47.023Z,99.99
2022-10-08T03:54:47.038Z,99.99
2022-10-08T03:55:46.997Z,99.99
2022-10-08T03:56:46.986Z,99.99
2022-10-08T03:57:46.971Z,99.99
2022-10-08T03:58:46.957Z,99.99
2022-10-08T03:59:46.946Z,99.99
2022-10-08T04:00:46.934Z,99.99
2022-10-08T04:01:46.981Z,99.99
2022-10-08T04:02:47.299Z,99.99
2022-10-08T04:03:47.090Z,99.99
2022-10-08T04:04:46.886Z,99.99
2022-10-08T04:05:46.869Z,99.99
2022-10-08T04:06:46.855Z,99.99
2022-10-08T04:07:46.843Z,99.99
2022-10-08T04:08:46.834Z,99.99
2022-10-08T04:09:46.818Z,99.99
2022-10-08T04:10:46.828Z,99.99
2022-10-08T04:11:46.790Z,99.99
2022-10-08T04:12:47.094Z,99.99
2022-10-08T04:13:46.769Z,99.99
2022-10-08T04:14:46.752Z,99.99
2022-10-08T04:15:46.776Z,99.99
2022-10-08T04:16:46.732Z,99.99
2022-10-08T04:17:46.712Z,99.99
2022-10-08T04:18:46.700Z,99.99
2022-10-08T04:19:46.690Z,99.99
2022-10-08T04:20:46.675Z,99.99
2022-10-08T04:21:46.665Z,99.99
2022-10-08T04:22:46.983Z,99.99
2022-10-08T04:23:46.640Z,99.99
2022-10-08T04:24:46.620Z,99.99
2022-10-08T04:25:46.610Z,99.99
2022-10-08T04:26:46.622Z,99.99
2022-10-08T04:27:46.583Z,99.99
2022-10-08T04:28:46.665Z,99.99
2022-10-08T04:29:46.557Z,99.99
2022-10-08T04:30:46.589Z,99.99
2022-10-08T04:31:46.540Z,99.99
2022-10-08T04:32:46.795Z,99.99
2022-10-08T04:33:46.507Z,99.99
2022-10-08T04:34:46.492Z,99.99
2022-10-08T04:35:46.479Z,99.99
2022-10-08T04:36:46.469Z,99.99
2022-10-08T04:37:46.454Z,99.99
2022-10-08T04:38:46.442Z,99.99
2022-10-08T04:39:46.429Z,99.99
2022-10-08T04:40:46.415Z,99.99
2022-10-08T04:41:46.403Z,99.99
2022-10-08T04:42:46.728Z,99.99
2022-10-08T04:43:46.377Z,99.99
2022-10-08T04:44:46.368Z,99.99
2022-10-08T04:45:46.354Z,99.99
2022-10-08T04:46:46.437Z,99.99
2022-10-08T04:47:46.346Z,99.99
2022-10-08T04:48:46.310Z,99.99
2022-10-08T04:49:46.297Z,99.99
2022-10-08T04:50:46.285Z,99.99
2022-10-08T04:51:46.271Z,99.99
2022-10-08T04:52:46.547Z,99.99
2022-10-08T04:53:46.246Z,99.99
2022-10-08T04:54:46.236Z,99.99
2022-10-08T04:55:46.220Z,99.99
2022-10-08T04:56:46.238Z,99.99
2022-10-08T04:57:46.193Z,99.99
2022-10-08T04:58:46.206Z,99.99
2022-10-08T05:00:06.080Z,99.99
2022-10-08T05:00:47.186Z,99.99
2022-10-08T05:01:46.208Z,99.99
2022-10-08T05:02:46.540Z,99.99
2022-10-08T05:03:46.116Z,99.99
2022-10-08T05:04:46.103Z,99.99
2022-10-08T05:05:46.092Z,99.99
2022-10-08T05:06:46.081Z,99.99
2022-10-08T05:07:46.065Z,99.99
2022-10-08T05:08:46.052Z,99.99
2022-10-08T05:09:46.039Z,99.99
2022-10-08T05:10:46.031Z,99.99
2022-10-08T05:11:46.020Z,99.99
2022-10-08T05:12:46.360Z,99.99
2022-10-08T05:13:45.988Z,99.99
2022-10-08T05:14:45.998Z,99.99
2022-10-08T05:15:46.086Z,99.99
2022-10-08T05:16:45.953Z,99.99
2022-10-08T05:17:45.934Z,99.99
2022-10-08T05:18:45.929Z,99.99
2022-10-08T05:19:45.905Z,99.99
2022-10-08T05:20:45.897Z,99.99
2022-10-08T05:21:46.077Z,99.99
2022-10-08T05:22:46.086Z,99.99
2022-10-08T05:23:45.856Z,99.99
2022-10-08T05:24:45.843Z,99.99
2022-10-08T05:25:45.833Z,99.99
2022-10-08T05:26:58.008Z,99.99
2022-10-08T05:27:46.838Z,99.99
2022-10-08T05:28:45.812Z,99.99
2022-10-08T05:29:45.780Z,99.99
2022-10-08T05:30:45.832Z,99.99
2022-10-08T05:31:45.754Z,99.99
2022-10-08T05:32:46.103Z,99.99
2022-10-08T05:33:45.730Z,99.99
2022-10-08T05:34:45.716Z,99.99
2022-10-08T05:35:45.703Z,99.99
2022-10-08T05:36:45.697Z,99.99
2022-10-08T05:37:45.677Z,99.99
2022-10-08T05:38:45.668Z,99.99
2022-10-08T05:39:45.651Z,99.99
2022-10-08T05:40:45.639Z,99.99
2022-10-08T05:41:45.626Z,99.99
2022-10-08T05:42:46.016Z,99.99
2022-10-08T05:43:45.600Z,99.99
2022-10-08T05:44:45.706Z,99.99
2022-10-08T05:45:45.574Z,99.99
2022-10-08T05:46:45.738Z,99.99
2022-10-08T05:47:45.548Z,99.99
2022-10-08T05:48:45.540Z,99.99
2022-10-08T05:49:45.524Z,99.99
2022-10-08T05:50:45.508Z,99.99
2022-10-08T05:51:45.499Z,99.99
2022-10-08T05:52:45.742Z,99.99
2022-10-08T05:53:45.468Z,99.99
2022-10-08T05:54:45.457Z,99.99
2022-10-08T05:55:45.441Z,99.99
2022-10-08T05:56:45.433Z,99.99
2022-10-08T05:57:45.420Z,99.99
2022-10-08T05:58:45.403Z,99.99
2022-10-08T05:59:45.589Z,99.99
2022-10-08T06:00:45.379Z,99.99
2022-10-08T06:01:45.365Z,99.99
2022-10-08T06:02:45.797Z,99.99
2022-10-08T06:03:45.340Z,99.99
2022-10-08T06:04:45.385Z,99.99
2022-10-08T06:05:45.317Z,99.99
2022-10-08T06:06:45.301Z,99.99
2022-10-08T06:07:45.289Z,99.99
2022-10-08T06:08:45.279Z,99.99
2022-10-08T06:09:45.261Z,99.99
2022-10-08T06:10:45.250Z,99.99
2022-10-08T06:11:45.238Z,99.99
2022-10-08T06:12:45.650Z,99.99
2022-10-08T06:13:45.210Z,99.99
2022-10-08T06:14:45.196Z,99.99
2022-10-08T06:15:45.352Z,99.99
2022-10-08T06:16:45.174Z,99.99
2022-10-08T06:17:45.161Z,99.99
2022-10-08T06:18:45.167Z,99.99
2022-10-08T06:19:45.132Z,99.99
2022-10-08T06:20:45.119Z,99.99
2022-10-08T06:21:45.112Z,99.99
2022-10-08T06:22:45.443Z,99.99
2022-10-08T06:23:45.082Z,99.99
2022-10-08T06:24:45.069Z,99.99
2022-10-08T06:25:45.054Z,99.99
2022-10-08T06:26:45.047Z,99.99
2022-10-08T06:27:45.030Z,99.99
2022-10-08T06:28:45.081Z,99.99
2022-10-08T06:29:45.000Z,99.99
2022-10-08T06:30:44.991Z,99.99
2022-10-08T06:31:45.079Z,99.99
2022-10-08T06:32:45.367Z,99.99
2022-10-08T06:33:44.948Z,99.99
2022-10-08T06:34:44.962Z,99.99
2022-10-08T06:35:44.926Z,99.99
2022-10-08T06:36:44.920Z,99.99
2022-10-08T06:37:44.897Z,99.99
2022-10-08T06:38:44.887Z,99.99
2022-10-08T06:39:48.258Z,99.99
2022-10-08T06:40:44.858Z,99.99
2022-10-08T06:41:44.861Z,99.99
2022-10-08T06:42:45.200Z,99.99
2022-10-08T06:43:44.820Z,99.99
2022-10-08T06:44:44.809Z,99.99
2022-10-08T06:45:44.791Z,99.99
2022-10-08T06:46:44.830Z,99.99
2022-10-08T06:47:44.765Z,99.99
2022-10-08T06:48:44.757Z,99.95
2022-10-08T06:49:44.742Z,99.38
2022-10-08T06:50:44.754Z,99.23
2022-10-08T06:51:44.720Z,99.02
2022-10-08T06:52:45.176Z,98.61
2022-10-08T06:53:44.721Z,98.21
2022-10-08T06:54:44.679Z,97.96
2022-10-08T06:55:44.665Z,97.90
2022-10-08T06:56:44.649Z,97.80
2022-10-08T06:57:44.648Z,97.90
2022-10-08T06:58:44.630Z,98.11
2022-10-08T06:59:44.616Z,98.41
2022-10-08T07:00:44.672Z,98.61
2022-10-08T07:01:44.719Z,98.72
2022-10-08T07:02:44.954Z,98.93
2022-10-08T07:03:44.563Z,99.23
2022-10-08T07:04:44.546Z,99.43
2022-10-08T07:05:44.547Z,99.54
2022-10-08T07:06:44.543Z,99.27
2022-10-08T07:07:44.509Z,99.48
2022-10-08T07:08:44.499Z,99.48
2022-10-08T07:09:44.483Z,99.48
2022-10-08T07:10:44.469Z,99.38
2022-10-08T07:11:44.457Z,99.48
2022-10-08T07:12:44.821Z,99.58
2022-10-08T07:13:44.433Z,99.68
2022-10-08T07:14:44.429Z,99.89
2022-10-08T07:15:44.418Z,99.99
2022-10-08T07:16:44.524Z,99.99
2022-10-08T07:17:44.388Z,99.99
2022-10-08T07:18:44.374Z,99.99
2022-10-08T07:19:44.358Z,99.99
2022-10-08T07:20:44.342Z,99.99
2022-10-08T07:21:44.327Z,99.99
2022-10-08T07:22:44.787Z,99.99
2022-10-08T07:23:44.304Z,99.99
2022-10-08T07:24:44.292Z,99.99
2022-10-08T07:25:44.276Z,99.99
2022-10-08T07:26:44.262Z,99.99
2022-10-08T07:27:45.125Z,99.99
2022-10-08T07:28:44.317Z,99.99
2022-10-08T07:29:44.224Z,99.99
2022-10-08T07:30:44.210Z,99.99
2022-10-08T07:31:44.272Z,99.99
2022-10-08T07:32:44.527Z,99.99
2022-10-08T07:33:44.399Z,99.99
2022-10-08T07:34:44.161Z,99.99
2022-10-08T07:35:44.151Z,99.99
2022-10-08T07:36:44.150Z,99.99
2022-10-08T07:37:44.119Z,99.99
2022-10-08T07:38:44.141Z,99.99
2022-10-08T07:39:44.093Z,99.99
2022-10-08T07:40:44.083Z,99.99
2022-10-08T07:41:44.074Z,99.99
2022-10-08T07:42:44.406Z,99.99
2022-10-08T07:43:44.045Z,99.99
2022-10-08T07:44:44.038Z,99.99
2022-10-08T07:45:44.031Z,99.99
2022-10-08T07:46:44.011Z,99.99
2022-10-08T07:47:43.992Z,99.99
2022-10-08T07:48:43.981Z,99.99
2022-10-08T07:49:43.965Z,99.99
2022-10-08T07:50:43.956Z,99.99
2022-10-08T07:51:43.940Z,99.99
2022-10-08T07:52:43.930Z,99.99
2022-10-08T07:53:43.922Z,99.99
2022-10-08T07:54:43.924Z,99.99
2022-10-08T07:55:43.885Z,99.99
2022-10-08T07:56:43.878Z,99.99
2022-10-08T07:57:43.863Z,99.99
2022-10-08T07:58:43.846Z,99.99
2022-10-08T07:59:43.841Z,99.99
2022-10-08T08:00:43.886Z,99.99
2022-10-08T08:01:43.901Z,99.99
2022-10-08T08:02:43.806Z,99.99
2022-10-08T08:03:43.779Z,99.99
2022-10-08T08:04:43.774Z,99.99
2022-10-08T08:05:43.757Z,99.99
2022-10-08T08:06:43.746Z,99.99
2022-10-08T08:07:43.734Z,99.99
2022-10-08T08:08:43.724Z,99.99
2022-10-08T08:09:43.709Z,99.99
2022-10-08T08:10:43.719Z,99.87
2022-10-08T08:11:43.678Z,99.77
2022-10-08T08:12:43.702Z,99.77
2022-10-08T08:13:43.663Z,99.66
2022-10-08T08:14:43.649Z,99.41
2022-10-08T08:15:43.628Z,99.62
2022-10-08T08:16:43.662Z,99.62
2022-10-08T08:17:43.611Z,99.72
2022-10-08T08:18:43.591Z,99.62
2022-10-08T08:19:43.578Z,99.41
2022-10-08T08:20:43.563Z,99.41
2022-10-08T08:21:43.552Z,99.52
2022-10-08T08:22:43.608Z,99.52
2022-10-08T08:23:43.527Z,99.47
2022-10-08T08:24:43.515Z,99.37
2022-10-08T08:25:43.500Z,99.27
2022-10-08T08:26:43.509Z,99.16
2022-10-08T08:27:43.473Z,98.96
2022-10-08T08:28:43.541Z,98.96
2022-10-08T08:29:43.447Z,99.06
2022-10-08T08:30:43.435Z,99.06
2022-10-08T08:31:43.699Z,98.86
2022-10-08T08:32:43.417Z,98.55
2022-10-08T08:33:43.401Z,98.50
2022-10-08T08:34:43.389Z,98.20
2022-10-08T08:35:43.369Z,98.30
2022-10-08T08:36:43.354Z,98.50
2022-10-08T08:37:43.348Z,98.50
2022-10-08T08:38:43.329Z,98.30
2022-10-08T08:39:43.317Z,98.10
2022-10-08T08:40:43.304Z,98.00
2022-10-08T08:41:43.295Z,98.00
2022-10-08T08:42:43.305Z,98.20
2022-10-08T08:43:43.267Z,98.30
2022-10-08T08:44:43.254Z,98.20
2022-10-08T08:45:47.614Z,98.20
2022-10-08T08:46:43.332Z,98.16
2022-10-08T08:47:43.213Z,98.26
2022-10-08T08:48:43.204Z,98.46
2022-10-08T08:49:43.192Z,98.66
2022-10-08T08:50:47.912Z,98.56
2022-10-08T08:51:43.356Z,98.56
2022-10-08T08:52:43.149Z,98.56
2022-10-08T08:53:43.138Z,98.66
2022-10-08T08:54:43.119Z,98.56
2022-10-08T08:55:43.109Z,98.56
2022-10-08T08:56:43.094Z,98.32
2022-10-08T08:57:43.081Z,98.32
2022-10-08T08:58:43.096Z,98.32
2022-10-08T08:59:43.055Z,98.21
2022-10-08T09:00:43.057Z,98.21
2022-10-08T09:01:43.028Z,98.41
2022-10-08T09:02:43.014Z,98.62
2022-10-08T09:03:43.010Z,98.52
2022-10-08T09:04:45.242Z,98.62
2022-10-08T09:05:43.088Z,98.41
2022-10-08T09:06:42.966Z,98.32
2022-10-08T09:07:42.953Z,98.11
2022-10-08T09:08:42.940Z,98.11
2022-10-08T09:09:42.926Z,98.21
2022-10-08T09:10:42.912Z,98.37
2022-10-08T09:11:42.898Z,98.37
2022-10-08T09:12:42.888Z,98.16
2022-10-08T09:13:42.869Z,98.16
2022-10-08T09:14:42.887Z,97.86
2022-10-08T09:15:42.849Z,97.51
2022-10-08T09:16:42.897Z,97.31
2022-10-08T09:17:42.819Z,97.31
2022-10-08T09:18:42.806Z,96.70
2022-10-08T09:19:42.797Z,96.30
2022-10-08T09:20:42.784Z,96.50
2022-10-08T09:21:42.768Z,96.60
2022-10-08T09:22:42.758Z,96.60
2022-10-08T09:23:42.750Z,96.60
2022-10-08T09:24:42.733Z,96.50
2022-10-08T09:25:42.721Z,96.50
2022-10-08T09:26:42.709Z,96.50
2022-10-08T09:27:42.686Z,96.60
2022-10-08T09:28:42.798Z,96.70
2022-10-08T09:29:42.665Z,96.45
2022-10-08T09:30:42.753Z,96.35
2022-10-08T09:31:42.640Z,96.35
2022-10-08T09:32:42.623Z,96.35
2022-10-08T09:33:42.610Z,95.84
2022-10-08T09:34:42.599Z,95.54
2022-10-08T09:35:42.587Z,95.43
2022-10-08T09:36:42.568Z,95.43
2022-10-08T09:37:42.560Z,95.74
2022-10-08T09:38:42.542Z,95.54
2022-10-08T09:39:42.532Z,95.74
2022-10-08T09:40:42.515Z,95.54
2022-10-08T09:41:42.505Z,95.43
2022-10-08T09:42:42.495Z,95.23
2022-10-08T09:43:42.478Z,95.54
2022-10-08T09:44:42.470Z,95.64
2022-10-08T09:45:42.496Z,94.93
2022-10-08T09:46:42.464Z,95.13
2022-10-08T09:47:42.433Z,95.54
2022-10-08T09:48:42.416Z,95.94
2022-10-08T09:49:42.408Z,95.99
2022-10-08T09:50:42.388Z,95.68
2022-10-08T09:51:42.376Z,95.58
2022-10-08T09:52:42.375Z,95.68
2022-10-08T09:53:42.352Z,95.58
2022-10-08T09:54:42.532Z,95.48
2022-10-08T09:55:42.322Z,95.38
2022-10-08T09:56:42.308Z,95.48
2022-10-08T09:57:43.902Z,95.79
2022-10-08T09:58:42.290Z,95.89
2022-10-08T09:59:42.269Z,95.79
2022-10-08T10:00:42.260Z,95.79
2022-10-08T10:01:42.329Z,95.99
2022-10-08T10:02:42.259Z,95.99
2022-10-08T10:03:42.244Z,95.73
2022-10-08T10:04:42.206Z,95.73
2022-10-08T10:05:42.194Z,96.03
2022-10-08T10:06:42.378Z,95.94
2022-10-08T10:07:42.170Z,95.73
2022-10-08T10:08:42.154Z,95.83
2022-10-08T10:09:42.141Z,96.03
2022-10-08T10:10:42.130Z,96.14
2022-10-08T10:11:42.121Z,95.94
2022-10-08T10:12:42.102Z,95.63
2022-10-08T10:13:42.090Z,95.83
2022-10-08T10:14:42.073Z,95.63
2022-10-08T10:15:42.060Z,95.42
2022-10-08T10:16:42.125Z,95.22
2022-10-08T10:17:42.033Z,95.32
2022-10-08T10:18:42.044Z,95.58
2022-10-08T10:19:42.011Z,95.89
2022-10-08T10:20:42.004Z,95.28
2022-10-08T10:21:41.981Z,94.77
2022-10-08T10:22:41.972Z,94.77
2022-10-08T10:23:41.956Z,94.98
2022-10-08T10:24:41.946Z,94.46
2022-10-08T10:25:41.946Z,94.26
2022-10-08T10:26:41.923Z,94.17
2022-10-08T10:27:41.904Z,94.37
2022-10-08T10:28:41.983Z,94.46
2022-10-08T10:29:41.879Z,94.57
2022-10-08T10:30:41.937Z,94.57
2022-10-08T10:31:41.853Z,94.57
2022-10-08T10:32:41.844Z,94.37
2022-10-08T10:33:41.827Z,94.67
2022-10-08T10:34:41.841Z,94.57
2022-10-08T10:35:41.803Z,93.96
2022-10-08T10:36:41.784Z,93.86
2022-10-08T10:37:41.774Z,94.02
2022-10-08T10:38:43.273Z,94.02
2022-10-08T10:39:41.746Z,93.91
2022-10-08T10:40:41.733Z,94.32
2022-10-08T10:41:41.720Z,93.21
2022-10-08T10:42:41.711Z,92.70
2022-10-08T10:43:41.700Z,93.00
2022-10-08T10:44:41.682Z,92.90
2022-10-08T10:45:41.676Z,93.00
2022-10-08T10:46:41.658Z,92.70
2022-10-08T10:47:41.643Z,92.09
2022-10-08T10:48:41.632Z,91.38
2022-10-08T10:49:41.620Z,91.58
2022-10-08T10:50:41.641Z,91.17
2022-10-08T10:51:41.592Z,91.68
2022-10-08T10:52:41.578Z,91.68
2022-10-08T10:53:41.567Z,90.88
2022-10-08T10:54:41.553Z,90.88
2022-10-08T10:55:41.539Z,90.88
2022-10-08T10:56:41.524Z,90.77
2022-10-08T10:57:41.518Z,90.88
2022-10-08T10:58:41.498Z,91.17
2022-10-08T10:59:41.488Z,90.57
2022-10-08T11:00:41.473Z,91.17
2022-10-08T11:01:41.536Z,91.58
2022-10-08T11:02:41.522Z,91.08
2022-10-08T11:03:41.435Z,90.67
2022-10-08T11:04:41.435Z,90.57
2022-10-08T11:05:41.409Z,90.36
2022-10-08T11:06:41.419Z,90.77
2022-10-08T11:07:41.579Z,91.08
2022-10-08T11:08:41.367Z,90.36
2022-10-08T11:09:41.354Z,90.67
2022-10-08T11:10:41.354Z,91.17
2022-10-08T11:11:41.332Z,91.48
2022-10-08T11:12:41.325Z,91.28
2022-10-08T11:13:41.302Z,91.28
2022-10-08T11:14:41.294Z,91.28
2022-10-08T11:15:41.337Z,90.88
2022-10-08T11:16:41.264Z,90.16
2022-10-08T11:17:41.252Z,90.47
2022-10-08T11:18:41.234Z,90.57
2022-10-08T11:19:41.225Z,90.26
2022-10-08T11:20:41.209Z,90.47
2022-10-08T11:21:41.199Z,90.57
2022-10-08T11:22:41.206Z,90.67
2022-10-08T11:23:41.174Z,90.26
2022-10-08T11:24:41.157Z,90.22
2022-10-08T11:26:09.909Z,90.32
2022-10-08T11:26:42.162Z,90.42
2022-10-08T11:27:41.123Z,90.73
2022-10-08T11:28:41.135Z,90.22
2022-10-08T11:29:41.090Z,90.32
2022-10-08T11:30:41.164Z,90.22
2022-10-08T11:31:41.089Z,90.42
2022-10-08T11:32:41.059Z,89.61
2022-10-08T11:33:41.039Z,90.02
2022-10-08T11:34:41.033Z,90.22
2022-10-08T11:35:41.209Z,89.61
2022-10-08T11:36:41.001Z,89.31
2022-10-08T11:37:40.986Z,89.51
2022-10-08T11:38:40.993Z,89.51
2022-10-08T11:39:40.964Z,89.81
2022-10-08T11:40:40.946Z,89.31
2022-10-08T11:41:40.939Z,89.21
2022-10-08T11:42:44.998Z,88.70
2022-10-08T11:43:41.943Z,88.35
2022-10-08T11:44:40.901Z,88.15
2022-10-08T11:45:40.882Z,87.85
2022-10-08T11:46:40.909Z,87.85
2022-10-08T11:47:41.054Z,88.15
2022-10-08T11:48:40.844Z,88.25
2022-10-08T11:49:40.838Z,88.76
2022-10-08T11:50:40.817Z,88.35
2022-10-08T11:51:40.806Z,88.56
2022-10-08T11:52:40.795Z,88.25
2022-10-08T11:53:40.778Z,87.95
2022-10-08T11:54:40.788Z,87.95
2022-10-08T11:55:40.749Z,88.35
2022-10-08T11:56:40.743Z,88.35
2022-10-08T11:58:06.636Z,88.46
2022-10-08T11:58:41.749Z,88.70
2022-10-08T11:59:40.701Z,89.31
2022-10-08T12:00:40.731Z,89.41
2022-10-08T12:01:40.675Z,87.59
2022-10-08T12:02:40.798Z,87.48
2022-10-08T12:03:40.741Z,87.59
2022-10-08T12:04:40.633Z,88.09
2022-10-08T12:05:40.628Z,88.34
2022-10-08T12:06:40.608Z,87.63
2022-10-08T12:07:40.590Z,88.44
2022-10-08T12:08:40.585Z,88.34
2022-10-08T12:09:40.572Z,88.03
2022-10-08T12:10:40.579Z,88.44
2022-10-08T12:11:40.544Z,88.23
2022-10-08T12:12:40.533Z,88.13
2022-10-08T12:13:40.518Z,88.34
2022-10-08T12:14:40.504Z,87.93
2022-10-08T12:15:40.566Z,87.73
2022-10-08T12:16:40.476Z,87.52
2022-10-08T12:17:40.466Z,87.32
2022-10-08T12:18:40.456Z,86.82
2022-10-08T12:19:40.436Z,87.22
2022-10-08T12:20:40.423Z,87.02
2022-10-08T12:21:40.412Z,87.32
2022-10-08T12:22:40.399Z,87.52
2022-10-08T12:23:40.391Z,87.43
2022-10-08T12:24:40.377Z,87.43
2022-10-08T12:25:40.359Z,86.82
2022-10-08T12:26:40.381Z,86.51
2022-10-08T12:27:40.333Z,86.71
2022-10-08T12:28:40.387Z,86.41
2022-10-08T12:29:40.306Z,86.00
2022-10-08T12:30:40.290Z,86.51
2022-10-08T12:31:40.399Z,86.68
2022-10-08T12:32:40.267Z,86.77
2022-10-08T12:33:40.258Z,86.37
2022-10-08T12:34:40.246Z,84.85
2022-10-08T12:35:40.232Z,84.55
2022-10-08T12:36:40.216Z,84.44
2022-10-08T12:37:40.203Z,84.81
2022-10-08T12:38:40.189Z,83.80
2022-10-08T12:39:40.173Z,84.20
2022-10-08T12:40:40.166Z,84.06
2022-10-08T12:41:40.148Z,83.76
2022-10-08T12:42:40.155Z,83.25
2022-10-08T12:43:40.123Z,82.84
2022-10-08T12:44:40.115Z,82.24
2022-10-08T12:45:40.097Z,81.23
2022-10-08T12:46:40.204Z,81.43
2022-10-08T12:47:40.078Z,81.23
2022-10-08T12:48:40.056Z,81.63
2022-10-08T12:49:40.044Z,81.52
2022-10-08T12:50:40.037Z,81.32
2022-10-08T12:51:40.024Z,80.21
2022-10-08T12:52:40.005Z,80.88
2022-10-08T12:53:39.997Z,79.97
2022-10-08T12:54:39.986Z,78.35
2022-10-08T12:55:39.976Z,79.46